Terminal Aerodrome Forecast
Issued by NWS

Home | Current Version | Previous Version | Text Only | Print | Product List | Glossary On
Versions: 1 2 3 4 5 6 7 8 9 10 11 12 13 14 15
000
FTUS41 KBOX 221837 AAB
TAFBAF
TAF AMD
KBAF 221837Z 2219/2318 16004KT P6SM FEW250
     FM231200 VRB03KT P6SM SCT060
     FM231500 17005KT P6SM BKN040
     FM231700 18007KT P6SM BKN030=

USA.gov is the U.S. government's official web portal to all federal, state and local government web resources and services.